createdAt,value
2023-05-01T00:01:31.877Z,1.23
2023-05-01T00:03:58.802Z,1.27
2023-05-01T00:06:26.300Z,1.23
2023-05-01T00:08:52.896Z,1.17
2023-05-01T00:11:19.641Z,1.20
2023-05-01T00:13:46.399Z,1.25
2023-05-01T00:16:13.564Z,1.10
2023-05-01T00:18:40.185Z,1.30
2023-05-01T00:21:06.642Z,1.15
2023-05-01T00:23:33.253Z,1.13
2023-05-01T00:25:59.801Z,1.15
2023-05-01T00:28:26.368Z,1.15
2023-05-01T00:30:52.999Z,1.20
2023-05-01T00:33:19.581Z,1.13
2023-05-01T00:35:49.916Z,1.45
2023-05-01T00:38:16.419Z,1.30
2023-05-01T00:40:45.974Z,1.23
2023-05-01T00:43:13.024Z,1.30
2023-05-01T00:45:43.224Z,1.30
2023-05-01T00:48:10.259Z,1.33
2023-05-01T00:50:37.343Z,1.25
2023-05-01T00:53:04.272Z,1.02
2023-05-01T00:55:31.649Z,1.33
2023-05-01T00:57:59.207Z,1.20
2023-05-01T01:00:26.150Z,1.40
2023-05-01T01:02:52.808Z,1.20
2023-05-01T01:05:22.102Z,1.27
2023-05-01T01:07:56.611Z,1.23
2023-05-01T01:11:08.607Z,1.48
2023-05-01T01:13:56.043Z,1.20
2023-05-01T01:16:41.756Z,1.30
2023-05-01T01:19:25.295Z,1.33
2023-05-01T01:21:58.815Z,1.33
2023-05-01T01:24:59.151Z,1.48
2023-05-01T01:27:37.914Z,1.10
2023-05-01T01:30:36.909Z,1.25
2023-05-01T01:33:25.543Z,1.27
2023-05-01T01:38:37.764Z,1.20
2023-05-01T01:41:15.228Z,1.40
2023-05-01T01:43:47.395Z,1.20
2023-05-01T01:46:17.718Z,1.13
2023-05-01T01:48:49.121Z,1.40
2023-05-01T01:51:19.228Z,1.33
2023-05-01T01:53:50.465Z,1.27
2023-05-01T01:56:19.374Z,1.10
2023-05-01T01:58:47.345Z,1.20
2023-05-01T02:01:16.197Z,1.33
2023-05-01T02:03:46.046Z,1.30
2023-05-01T02:06:14.552Z,1.30
2023-05-01T02:08:42.643Z,1.20
2023-05-01T02:11:11.323Z,1.60
2023-05-01T02:13:39.139Z,1.27
2023-05-01T02:16:07.247Z,1.20
2023-05-01T02:18:34.668Z,1.30
2023-05-01T02:21:03.388Z,1.27
2023-05-01T02:23:31.098Z,1.60
2023-05-01T02:26:00.738Z,1.77
2023-05-01T02:28:29.895Z,1.30
2023-05-01T02:30:57.329Z,1.30
2023-05-01T02:33:24.039Z,1.70
2023-05-01T02:35:50.584Z,1.40
2023-05-01T02:38:17.520Z,1.25
2023-05-01T02:40:47.167Z,1.10
2023-05-01T02:43:18.487Z,1.27
2023-05-01T02:45:46.118Z,1.05
2023-05-01T02:48:17.654Z,1.23
2023-05-01T02:50:49.273Z,0.93
2023-05-01T02:53:16.771Z,1.35
2023-05-01T02:55:43.603Z,1.30
2023-05-01T02:58:15.692Z,1.42
2023-05-01T03:00:42.567Z,1.30
2023-05-01T03:03:09.121Z,1.08
2023-05-01T03:05:35.708Z,1.23
2023-05-01T03:08:02.216Z,1.25
2023-05-01T03:10:28.775Z,1.10
2023-05-01T03:12:55.646Z,1.20
2023-05-01T03:15:22.248Z,1.35
2023-05-01T03:17:48.847Z,1.45
2023-05-01T03:20:16.157Z,1.20
2023-05-01T03:22:42.704Z,1.20
2023-05-01T03:25:09.831Z,1.30
2023-05-01T03:27:36.321Z,1.23
2023-05-01T03:30:04.534Z,1.20
2023-05-01T03:32:31.033Z,1.25
2023-05-01T03:34:57.499Z,1.25
2023-05-01T03:37:24.818Z,1.23
2023-05-01T03:39:51.955Z,1.42
2023-05-01T03:42:18.643Z,1.38
2023-05-01T03:44:45.693Z,1.42
2023-05-01T03:47:12.280Z,1.38
2023-05-01T03:49:38.768Z,0.90
2023-05-01T03:52:06.492Z,1.50
2023-05-01T03:54:33.080Z,1.05
2023-05-01T03:57:00.588Z,1.30
2023-05-01T03:59:27.161Z,1.25
2023-05-01T04:01:53.820Z,1.33
2023-05-01T04:04:20.485Z,1.30
2023-05-01T04:06:49.698Z,1.20
2023-05-01T04:09:16.333Z,1.23
2023-05-01T04:11:42.823Z,1.17
2023-05-01T04:14:09.371Z,1.25
2023-05-01T04:27:12.450Z,1.42
2023-05-01T04:29:40.468Z,1.30
2023-05-01T04:32:17.268Z,1.50
2023-05-01T04:37:41.256Z,1.60
2023-05-01T04:40:10.581Z,1.40
2023-05-01T04:42:38.053Z,1.33
2023-05-01T04:45:05.066Z,1.63
2023-05-01T04:47:31.702Z,1.40
2023-05-01T04:49:58.532Z,1.55
2023-05-01T04:52:25.731Z,1.60
2023-05-01T04:55:36.053Z,1.27
2023-05-01T04:58:12.917Z,1.52
2023-05-01T05:00:42.153Z,1.45
2023-05-01T05:06:25.888Z,1.20
2023-05-01T05:08:55.142Z,1.33
2023-05-01T05:11:21.726Z,1.83
2023-05-01T05:13:48.269Z,1.50
2023-05-01T05:16:15.378Z,1.52
2023-05-01T05:18:42.149Z,1.40
2023-05-01T06:13:33.585Z,1.73
2023-05-01T06:19:28.320Z,1.55
2023-05-01T06:22:04.789Z,1.95
2023-05-01T06:24:44.929Z,1.75
2023-05-01T06:27:40.979Z,1.67
2023-05-01T06:30:37.950Z,1.52
2023-05-01T06:33:44.604Z,1.58
2023-05-01T06:36:56.909Z,1.92
2023-05-01T06:40:10.920Z,1.58
2023-05-01T06:42:48.783Z,1.75
2023-05-01T06:46:35.501Z,1.80
2023-05-01T06:49:04.146Z,1.70
2023-05-01T06:51:35.966Z,1.60
2023-05-01T06:54:12.845Z,1.52
2023-05-01T06:56:44.778Z,1.63
2023-05-01T06:59:59.661Z,2.03
2023-05-01T07:05:55.854Z,1.75
2023-05-01T07:09:06.853Z,1.58
2023-05-01T07:11:52.814Z,1.80
2023-05-01T07:17:34.765Z,2.58
2023-05-01T07:20:22.438Z,1.67
2023-05-01T07:23:13.252Z,1.70
2023-05-01T07:25:55.470Z,1.75
2023-05-01T07:29:08.971Z,1.75
2023-05-01T07:32:31.580Z,1.75
2023-05-01T07:34:57.526Z,1.75
2023-05-01T07:37:27.841Z,1.80
2023-05-01T07:39:57.087Z,1.95
2023-05-01T07:42:26.319Z,1.63
2023-05-01T07:45:26.482Z,1.83
2023-05-01T07:48:05.290Z,1.65
2023-05-01T07:51:14.407Z,1.63
2023-05-01T07:54:24.954Z,1.58
2023-05-01T07:56:51.676Z,1.90
2023-05-01T08:05:44.722Z,1.92
2023-05-01T08:08:23.003Z,1.98
2023-05-01T08:11:31.408Z,1.67
2023-05-01T08:14:00.017Z,1.63
2023-05-01T08:16:31.360Z,2.00
2023-05-01T08:19:08.761Z,2.10
2023-05-01T08:21:49.397Z,1.60
2023-05-01T08:24:40.923Z,1.92
2023-05-01T08:27:09.723Z,1.52
2023-05-01T08:30:02.122Z,2.15
2023-05-01T08:32:33.700Z,1.95
2023-05-01T08:35:00.357Z,1.90
2023-05-01T08:37:35.226Z,2.05
2023-05-01T08:40:21.022Z,2.25
2023-05-01T08:42:50.784Z,2.15
2023-05-01T08:45:38.390Z,2.00
2023-05-01T08:48:20.369Z,2.45
2023-05-01T08:50:59.993Z,2.28
2023-05-01T08:56:23.546Z,2.28
2023-05-01T08:58:54.202Z,2.10
2023-05-01T09:01:22.415Z,2.30
2023-05-01T09:03:51.246Z,2.05
2023-05-01T09:06:18.611Z,2.28
2023-05-01T09:08:45.309Z,2.35
2023-05-01T09:11:12.249Z,2.50
2023-05-01T09:13:39.010Z,2.15
2023-05-01T09:16:06.606Z,1.90
2023-05-01T09:18:34.671Z,2.30
2023-05-01T09:21:01.990Z,2.22
2023-05-01T09:23:28.869Z,2.10
2023-05-01T09:25:57.197Z,2.20
2023-05-01T09:28:41.748Z,2.40
2023-05-01T09:31:23.636Z,2.10
2023-05-01T09:33:58.093Z,2.22
2023-05-01T09:36:26.878Z,2.08
2023-05-01T09:38:55.480Z,1.90
2023-05-01T09:41:31.063Z,2.33
2023-05-01T09:44:11.901Z,1.95
2023-05-01T09:47:21.407Z,2.30
2023-05-01T09:49:48.387Z,2.20
2023-05-01T09:52:15.773Z,1.92
2023-05-01T09:54:43.733Z,2.30
2023-05-01T09:57:12.682Z,2.17
2023-05-01T09:59:50.386Z,1.90
2023-05-01T10:02:31.954Z,2.47
2023-05-01T10:04:59.971Z,2.30
2023-05-01T10:07:30.166Z,1.92
2023-05-01T10:09:59.209Z,2.42
2023-05-01T10:12:34.489Z,2.08
2023-05-01T10:15:23.312Z,2.03
2023-05-01T10:17:52.355Z,2.38
2023-05-01T10:20:19.208Z,1.92
2023-05-01T10:22:46.739Z,1.98
2023-05-01T10:25:14.253Z,2.42
2023-05-01T10:27:41.582Z,2.28
2023-05-01T10:30:10.106Z,2.10
2023-05-01T10:32:38.108Z,2.25
2023-05-01T10:35:11.560Z,2.58
2023-05-01T10:38:02.097Z,1.88
2023-05-01T10:40:41.042Z,2.20
2023-05-01T10:43:18.307Z,2.45
2023-05-01T10:45:51.132Z,2.03
2023-05-01T10:48:45.029Z,2.05
2023-05-01T10:51:27.744Z,2.22
2023-05-01T10:54:26.847Z,2.00
2023-05-01T10:57:03.474Z,2.03
2023-05-01T11:00:17.318Z,1.73
2023-05-01T11:02:47.052Z,1.95
2023-05-01T11:05:38.019Z,2.10
2023-05-01T11:18:18.280Z,1.92
2023-05-01T11:26:52.312Z,1.83
2023-05-01T11:29:21.657Z,1.83
2023-05-01T11:32:19.195Z,2.25
2023-05-01T11:34:59.739Z,2.25
2023-05-01T11:37:57.152Z,2.17
2023-05-01T11:40:33.531Z,2.10
2023-05-01T11:43:19.611Z,2.17
2023-05-01T11:46:06.161Z,1.77
2023-05-01T11:48:37.552Z,1.83
2023-05-01T12:00:31.070Z,2.17
2023-05-01T12:03:06.413Z,2.13
2023-05-01T12:05:39.262Z,1.60
2023-05-01T12:08:18.457Z,1.95
2023-05-01T12:10:47.293Z,2.17
2023-05-01T12:13:15.300Z,1.70
2023-05-01T12:15:50.814Z,2.15
2023-05-01T12:18:36.364Z,1.85
2023-05-01T12:28:32.161Z,2.20
2023-05-01T12:31:05.395Z,2.67
2023-05-01T12:34:06.040Z,2.92
2023-05-01T12:39:43.514Z,2.63
2023-05-01T12:49:41.408Z,2.63
2023-05-01T12:51:35.640Z,2.65
2023-05-01T12:51:46.562Z,2.33
2023-05-01T12:54:39.539Z,2.72
2023-05-01T12:57:17.167Z,2.50
2023-05-01T13:00:36.689Z,2.97
2023-05-01T13:13:29.882Z,2.30
2023-05-01T13:16:16.298Z,2.40
2023-05-01T13:18:52.808Z,2.47
2023-05-01T13:21:21.529Z,2.63
2023-05-01T13:23:56.434Z,2.03
2023-05-01T13:26:33.598Z,2.70
2023-05-01T13:29:01.827Z,2.33
2023-05-01T13:31:29.159Z,2.92
2023-05-01T13:37:23.168Z,2.78
2023-05-01T13:39:51.801Z,2.28
2023-05-01T13:42:24.860Z,2.20
2023-05-01T14:16:56.240Z,2.05
2023-05-01T14:19:22.838Z,2.40
2023-05-01T14:21:49.391Z,2.00
2023-05-01T14:24:18.195Z,1.88
2023-05-01T14:26:48.072Z,2.17
2023-05-01T14:29:27.306Z,2.00
2023-05-01T14:32:05.335Z,2.00
2023-05-01T14:34:33.461Z,2.25
2023-05-01T14:37:00.177Z,1.80
2023-05-01T14:39:27.259Z,1.77
2023-05-01T14:41:56.443Z,1.88
2023-05-01T14:44:28.420Z,1.25
2023-05-01T14:46:55.318Z,1.70
2023-05-01T14:49:26.529Z,1.80
2023-05-01T14:51:54.119Z,1.63
2023-05-01T14:54:21.135Z,1.50
2023-05-01T14:56:48.926Z,1.80
2023-05-01T14:59:16.438Z,1.27
2023-05-01T15:01:44.068Z,1.55
2023-05-01T15:04:11.770Z,2.10
2023-05-01T15:06:38.628Z,1.80
2023-05-01T15:09:07.801Z,1.75
2023-05-01T15:11:34.405Z,1.85
2023-05-01T15:14:01.207Z,1.50
2023-05-01T15:16:27.872Z,1.88
2023-05-01T15:18:54.757Z,2.10
2023-05-01T15:21:25.431Z,2.47
2023-05-01T15:28:02.334Z,2.50
2023-05-01T15:30:29.057Z,2.00
2023-05-01T15:32:55.846Z,1.73
2023-05-01T15:35:23.674Z,2.40
2023-05-01T15:37:50.602Z,2.30
2023-05-01T15:40:17.309Z,2.15
2023-05-01T15:42:45.430Z,2.58
2023-05-01T15:45:11.985Z,2.38
2023-05-01T15:47:38.717Z,2.08
2023-05-01T15:50:09.603Z,2.00
2023-05-01T15:52:36.217Z,1.98
2023-05-01T15:55:02.855Z,2.00
2023-05-01T15:57:34.643Z,2.50
2023-05-01T16:11:46.434Z,2.33
2023-05-01T16:14:38.755Z,2.35
2023-05-01T16:17:56.804Z,2.22
2023-05-01T16:28:42.090Z,2.40
2023-05-01T16:55:31.832Z,4.40
2023-05-01T16:58:07.905Z,3.53
2023-05-01T17:01:05.743Z,3.67
2023-05-01T17:10:01.267Z,4.38
2023-05-01T17:12:55.543Z,3.92
2023-05-01T17:16:05.379Z,4.30
2023-05-01T17:19:57.696Z,3.80
2023-05-01T18:06:30.031Z,4.15
2023-05-01T18:12:36.134Z,4.70
2023-05-01T19:28:34.426Z,6.07
2023-05-01T19:32:00.333Z,5.40
2023-05-01T19:52:02.388Z,5.82
2023-05-01T19:58:56.847Z,5.78
2023-05-01T20:01:29.879Z,5.60
2023-05-01T20:04:52.732Z,6.57
2023-05-01T20:07:48.669Z,5.30
2023-05-01T20:22:08.226Z,6.25
2023-05-01T20:29:50.144Z,7.25
2023-05-01T20:45:02.638Z,6.68
2023-05-01T20:54:12.742Z,7.97
2023-05-01T20:57:13.001Z,6.82
2023-05-01T21:00:17.619Z,6.78
2023-05-01T21:03:46.044Z,7.95
2023-05-01T21:07:59.288Z,8.75
2023-05-01T21:13:02.775Z,8.50
2023-05-01T21:16:06.615Z,8.48
2023-05-01T21:21:49.119Z,8.02
2023-05-01T21:24:35.407Z,7.93
2023-05-01T21:27:31.355Z,6.55
2023-05-01T21:30:33.635Z,8.68
2023-05-01T21:36:45.833Z,7.35
2023-05-01T21:39:12.492Z,7.95
2023-05-01T21:41:40.608Z,7.38
2023-05-01T21:44:07.313Z,7.78
2023-05-01T21:46:35.985Z,6.60
2023-05-01T21:49:02.608Z,7.28
2023-05-01T21:51:29.235Z,6.90
2023-05-01T21:53:55.891Z,5.53
2023-05-01T21:56:23.426Z,7.20
2023-05-01T21:58:50.309Z,6.35
2023-05-01T22:01:17.237Z,6.72
2023-05-01T22:03:45.458Z,6.65
2023-05-01T22:06:12.154Z,6.78
2023-05-01T22:08:38.650Z,6.60
2023-05-01T22:11:06.509Z,6.32
2023-05-01T22:13:34.422Z,5.35
2023-05-01T22:16:00.897Z,6.63
2023-05-01T22:18:27.821Z,7.30
2023-05-01T22:20:54.397Z,5.65
2023-05-01T22:23:21.594Z,6.53
2023-05-01T22:25:48.104Z,5.90
2023-05-01T22:28:15.947Z,5.70
2023-05-01T22:30:44.451Z,6.47
2023-05-01T22:33:10.984Z,5.95
2023-05-01T22:35:37.474Z,5.50
2023-05-01T22:38:04.007Z,5.93
2023-05-01T22:40:30.851Z,5.47
2023-05-01T22:42:57.352Z,5.53
2023-05-01T22:45:23.853Z,5.47
2023-05-01T22:47:50.354Z,4.68
2023-05-01T22:50:17.033Z,4.72
2023-05-01T22:52:45.874Z,5.07
2023-05-01T22:55:13.121Z,5.10
2023-05-01T22:57:39.662Z,4.60
2023-05-01T23:00:07.957Z,5.03
2023-05-01T23:02:34.630Z,5.57
2023-05-01T23:05:01.281Z,4.78
2023-05-01T23:07:27.761Z,5.30
2023-05-01T23:09:56.002Z,4.47
2023-05-01T23:12:23.387Z,4.53
2023-05-01T23:14:49.868Z,4.65
2023-05-01T23:17:16.343Z,4.45
2023-05-01T23:19:46.030Z,4.18
2023-05-01T23:22:13.141Z,4.45
2023-05-01T23:24:48.408Z,4.85
2023-05-01T23:27:18.067Z,4.72
2023-05-01T23:29:54.040Z,4.70
2023-05-01T23:32:31.331Z,4.82
2023-05-01T23:35:03.730Z,6.15
2023-05-01T23:37:30.248Z,4.70
2023-05-01T23:39:58.605Z,4.63
2023-05-01T23:42:25.813Z,5.00
2023-05-01T23:44:52.427Z,5.65
2023-05-01T23:47:19.369Z,4.93
2023-05-01T23:49:46.669Z,5.00
2023-05-01T23:52:13.319Z,4.90
2023-05-01T23:54:39.761Z,5.40
2023-05-01T23:57:06.208Z,6.00
2023-05-01T23:59:32.652Z,5.43
